Latest Weather Observations for Moree

IDN60801

Issued at 6:33 am EDT Saturday 16 October 2021 (issued every 10 minutes, with the page automatically refreshed every 10 minutes)

About weather observations | Map of weather stations | Latest weather observations for NSW | Other Formats
Station Details ID: 053115 Name: MOREE AERO Lat: -29.49 Lon: 149.85 Height: 213.0 m
Data from the previous 72 hours. | See also: Recent months at Moree
Date/Time
EDT
Temp
°C
App
Temp
°C
Dew
Point
°C
Rel
Hum
%
Delta-T
°C
Wind Press
QNH
hPa
Press
MSL
hPa
Rain since
9am
mm
Dir  Spd
km/h
Gust
km/h
Spd
kts
Gust
kts
16/06:30am 8.2 5.4 7.1 93 0.5 N 11 13 6 7 1011.8 1011.1 0.0
16/06:00am 8.1 5.3 7.0 93 0.5 NNW 11 15 6 8 1011.6 1010.9 0.0
16/05:30am 7.8 5.8 6.4 91 0.6 NW 6 7 3 4 1011.2 1010.4 0.0
16/05:00am 8.4 5.7 7.2 92 0.6 NW 11 13 6 7 1011.2 1010.4 0.0
16/04:30am 8.3 5.9 7.1 92 0.6 NW 9 11 5 6 1010.8 1010.0 0.0
16/04:00am 8.3 5.9 6.9 91 0.7 NNW 9 9 5 5 1010.5 1009.7 0.0
16/03:30am 8.7 6.7 7.2 90 0.7 NNW 7 7 4 4 1010.5 1009.7 0.0
16/03:00am 8.7 7.9 6.5 86 1.0 CALM 0 6 0 3 1010.5 1009.7 0.0
16/02:30am 9.2 7.3 7.5 89 0.8 N 7 11 4 6 1010.6 1009.8 0.0
16/02:00am 9.5 7.2 7.4 87 1.0 S 9 11 5 6 1010.7 1009.9 0.0
16/01:30am 9.7 8.7 7.3 85 1.2 S 2 7 1 4 1010.9 1010.1 0.0
16/01:00am 9.7 7.3 7.1 84 1.2 SSE 9 9 5 5 1011.2 1010.4 0.0
16/12:30am 9.6 7.6 6.9 83 1.3 ESE 7 9 4 5 1011.3 1010.5 0.0
16/12:00am 10.2 7.8 7.1 81 1.5 S 9 11 5 6 1011.4 1010.6 0.0
 
Date/Time
EDT
Temp
°C
App
Temp
°C
Dew
Point
°C
Rel
Hum
%
Delta-T
°C
Wind Press
QNH
hPa
Press
MSL
hPa
Rain since
9am
mm
Dir  Spd
km/h
Gust
km/h
Spd
kts
Gust
kts
15/11:30pm 10.9 9.0 7.4 79 1.7 S 7 9 4 5 1011.6 1010.9 0.0
15/11:00pm 11.6 8.2 7.5 76 2.0 SSW 15 19 8 10 1011.7 1011.0 0.0
15/10:30pm 12.6 7.9 7.7 72 2.4 SSW 22 30 12 16 1012.0 1011.3 0.0
15/10:00pm 13.2 7.2 7.2 67 3.0 SSW 28 37 15 20 1011.6 1010.9 0.0
15/09:30pm 15.3 9.1 6.3 55 4.4 SW 28 56 15 30 1010.9 1010.1 0.0
15/09:27pm 15.7 11.3 6.4 54 4.6 WSW 19 46 10 25 1010.5 1009.7 0.0
15/09:00pm 16.5 13.3 5.2 47 5.5 W 11 13 6 7 1009.4 1008.7 0.0
15/08:30pm 16.2 13.4 5.2 48 5.3 W 9 11 5 6 1009.0 1008.3 0.0
15/08:00pm 16.9 13.7 4.9 45 5.8 WSW 11 13 6 7 1008.6 1007.9 0.0
15/07:30pm 17.1 13.5 4.8 44 5.9 WSW 13 15 7 8 1008.4 1007.7 0.0
15/07:00pm 18.2 14.1 4.4 40 6.7 SW 15 17 8 9 1008.1 1007.4 0.0
15/06:30pm 19.6 14.5 2.9 33 7.9 WSW 19 28 10 15 1007.5 1006.8 0.0
15/06:00pm 20.9 14.0 2.7 30 8.7 W 28 35 15 19 1006.9 1006.1 0.0
15/05:30pm 20.8 13.8 2.1 29 8.8 W 28 37 15 20 1006.5 1005.7 0.0
15/05:21pm 21.8 14.5 2.5 28 9.2 W 30 48 16 26 1006.4 1005.6 0.0
15/05:00pm 22.7 16.7 3.3 28 9.5 W 24 35 13 19 1006.3 1005.5 0.0
15/04:30pm 21.7 15.5 1.9 27 9.3 WNW 24 44 13 24 1006.0 1005.2 0.0
15/04:10pm 22.7 15.7 1.7 25 9.9 W 28 46 15 25 1006.0 1005.2 0.0
15/04:00pm 21.6 14.3 2.3 28 9.2 W 30 41 16 22 1006.2 1005.4 0.0
15/03:30pm 22.6 14.8 1.6 25 9.9 W 32 39 17 21 1006.5 1005.7 0.0
15/03:01pm 22.8 15.1 2.3 26 9.8 WNW 32 52 17 28 1006.5 1005.7 0.0
15/03:00pm 22.9 15.0 1.3 24 10.2 WNW 32 48 17 26 1006.6 1005.8 0.0
15/02:45pm 22.7 14.7 1.7 25 9.9 WNW 33 52 18 28 1006.7 1005.9 0.0
15/02:30pm 22.7 14.9 2.8 27 9.6 WNW 33 50 18 27 1006.9 1006.1 0.0
15/02:08pm 22.6 15.7 2.7 27 9.6 WNW 28 54 15 29 1007.0 1006.2 0.0
15/02:00pm 22.2 14.8 3.8 30 9.0 WNW 32 44 17 24 1007.0 1006.2 0.0
15/01:30pm 22.5 14.9 4.1 30 9.1 WNW 33 54 18 29 1007.3 1006.5 0.0
15/01:24pm 22.3 14.4 2.4 27 9.5 WNW 33 54 18 29 1007.5 1006.8 0.0
15/01:00pm 21.6 14.4 2.8 29 9.0 WNW 30 46 16 25 1007.7 1007.0 0.0
15/12:42pm 22.0 14.7 2.7 28 9.2 WNW 30 50 16 27 1007.9 1007.2 0.0
15/12:30pm 22.0 13.7 2.2 27 9.4 WNW 35 48 19 26 1008.0 1007.3 0.0
15/12:00pm 21.2 13.9 2.5 29 8.9 WNW 30 39 16 21 1008.3 1007.6 0.0
15/11:30am 21.3 14.1 3.0 30 8.8 WNW 30 50 16 27 1008.8 1008.1 0.0
15/11:19am 20.8 13.4 2.1 29 8.8 WNW 30 48 16 26 1008.9 1008.2 0.0
15/11:00am 20.3 12.7 2.6 31 8.4 WNW 32 44 17 24 1009.1 1008.4 0.0
15/10:44am 20.2 12.5 2.1 30 8.4 WNW 32 50 17 27 1009.3 1008.6 0.0
15/10:30am 19.8 11.6 2.6 32 8.1 WNW 35 43 19 23 1009.4 1008.7 0.0
15/10:10am 19.7 11.7 1.7 30 8.3 WNW 33 52 18 28 1009.8 1009.0 0.0
15/10:00am 20.1 12.6 3.3 33 8.0 NW 32 41 17 22 1009.9 1009.1 0.0
15/09:30am 19.4 13.3 2.7 33 7.8 NW 24 30 13 16 1009.8 1009.0 0.0
15/09:00am 18.5 12.5 3.2 36 7.2 NW 24 35 13 19 1009.9 1009.1 0.0
15/08:30am 17.6 12.7 3.9 40 6.5 NW 19 32 10 17 1009.9 1009.1 0.0
15/08:00am 15.6 12.1 5.5 51 4.9 NW 13 19 7 10 1009.4 1008.7 0.0
15/07:30am 12.7 9.2 5.6 62 3.4 NW 13 15 7 8 1008.9 1008.2 0.0
15/07:00am 12.4 8.5 5.3 62 3.3 NNW 15 17 8 9 1008.1 1007.4 0.0
15/06:30am 13.0 9.0 4.9 58 3.8 WNW 15 19 8 10 1007.5 1006.8 0.0
15/06:00am 13.6 9.6 4.7 55 4.2 WNW 15 17 8 9 1007.0 1006.2 0.0
15/05:30am 14.5 10.2 5.3 54 4.4 WNW 17 20 9 11 1006.5 1005.7 0.0
15/05:00am 15.3 11.3 6.6 56 4.3 WNW 17 22 9 12 1005.6 1004.8 0.0
15/04:30am 15.7 14.2 13.2 85 1.4 NW 13 15 7 8 1005.2 1004.4 0.0
15/04:00am 16.2 14.9 14.7 91 0.9 N 15 19 8 10 1004.8 1004.0 0.0
15/03:30am 16.8 15.3 15.2 90 0.9 N 17 20 9 11 1004.9 1004.1 0.0
15/03:00am 17.2 15.3 15.2 88 1.2 N 19 26 10 14 1005.1 1004.3 0.0
15/02:30am 17.6 16.1 15.4 87 1.3 N 17 24 9 13 1005.3 1004.5 0.0
15/02:00am 18.0 16.0 15.4 85 1.5 N 20 30 11 16 1005.5 1004.7 0.0
15/01:30am 18.4 16.4 15.6 84 1.7 NNE 20 30 11 16 1005.7 1004.9 0.0
15/01:00am 18.1 16.2 15.2 83 1.7 NNE 19 26 10 14 1005.5 1004.7 0.0
15/12:30am 17.6 15.1 13.5 77 2.3 NE 19 26 10 14 1005.8 1005.0 0.0
15/12:00am 17.9 15.1 8.7 55 4.8 NNE 13 20 7 11 1005.9 1005.1 0.0
 
Date/Time
EDT
Temp
°C
App
Temp
°C
Dew
Point
°C
Rel
Hum
%
Delta-T
°C
Wind Press
QNH
hPa
Press
MSL
hPa
Rain since
9am
mm
Dir  Spd
km/h
Gust
km/h
Spd
kts
Gust
kts
14/11:30pm 17.2 13.4 7.5 53 4.9 NE 17 17 9 9 1005.8 1005.0 0.0
14/11:00pm 16.9 13.8 7.3 53 4.9 NE 13 15 7 8 1005.8 1005.0 0.0
14/10:30pm 18.4 14.7 6.3 45 6.1 NNE 15 17 8 9 1005.9 1005.1 0.0
14/10:00pm 20.7 17.0 4.3 34 8.0 NNW 13 13 7 7 1006.0 1005.2 0.0
14/09:30pm 20.7 17.5 5.1 36 7.7 NW 11 13 6 7 1006.1 1005.3 0.0
14/09:00pm 21.2 17.9 4.7 34 8.2 NW 11 11 6 6 1005.9 1005.1 0.0
14/08:30pm 21.4 17.8 4.9 34 8.2 WNW 13 13 7 7 1005.6 1004.8 0.0
14/08:00pm 22.2 18.6 5.2 33 8.6 WNW 13 13 7 7 1005.4 1004.6 0.0
14/07:30pm 22.7 19.3 6.0 34 8.5 NW 13 15 7 8 1005.3 1004.5 0.0
14/07:00pm 24.6 20.8 5.9 30 9.7 NW 15 20 8 11 1005.1 1004.3 0.0
14/06:30pm 27.1 22.0 6.0 26 11.1 WNW 22 30 12 16 1004.7 1003.9 0.0
14/06:00pm 28.5 23.5 6.6 25 11.8 WNW 22 32 12 17 1004.4 1003.7 0.0
14/05:30pm 29.4 23.6 6.1 23 12.4 NW 26 35 14 19 1004.3 1003.6 0.0
14/05:00pm 29.9 23.6 5.9 22 12.8 NNW 28 46 15 25 1004.3 1003.6 0.0
14/04:30pm 30.1 24.7 7.9 25 12.2 NNW 26 37 14 20 1004.4 1003.7 0.0
14/04:00pm 29.0 24.4 6.4 24 12.1 NNW 20 32 11 17 1004.7 1003.9 0.0
14/03:30pm 29.7 25.5 8.2 26 11.9 N 20 33 11 18 1005.2 1004.4 0.0
14/03:00pm 28.5 24.2 10.7 33 10.2 N 24 35 13 19 1005.6 1004.8 0.0
14/02:30pm 28.8 24.8 11.8 35 9.9 N 24 33 13 18 1006.0 1005.2 0.0
14/02:00pm 28.0 24.4 12.0 37 9.4 N 22 35 12 19 1006.7 1005.9 0.0
14/01:30pm 28.6 24.4 12.5 37 9.5 NNW 26 39 14 21 1007.2 1006.4 0.0
14/01:00pm 28.0 25.2 15.3 46 7.8 N 24 35 13 19 1007.7 1007.0 0.0
14/12:30pm 27.4 24.6 15.4 48 7.4 N 24 33 13 18 1008.2 1007.5 0.0
14/12:00pm 25.7 22.5 16.3 56 5.8 N 28 41 15 22 1008.5 1007.8 0.0
14/11:30am 25.7 22.8 17.9 62 5.0 NNE 30 39 16 21 1008.8 1008.1 0.0
14/11:00am 24.3 21.1 17.3 65 4.4 NNE 30 43 16 23 1009.3 1008.6 0.0
14/10:30am 23.1 19.3 16.6 67 4.0 NNE 32 43 17 23 1009.6 1008.8 0.0
14/10:00am 22.7 19.7 16.7 69 3.7 NNE 28 39 15 21 1009.7 1008.9 0.0
14/09:30am 21.5 17.4 16.5 73 3.1 NNE 33 46 18 25 1009.9 1009.1 0.0
14/09:00am 21.2 17.3 16.4 74 2.9 NNE 32 41 17 22 1009.9 1009.1 0.4
14/08:30am 20.0 15.8 15.6 76 2.6 NNE 32 44 17 24 1009.8 1009.0 0.4
14/08:00am 19.0 16.3 15.5 80 2.1 NE 24 32 13 17 1009.6 1008.8 0.4
14/07:30am 17.7 15.3 15.3 86 1.4 NE 22 30 12 16 1009.3 1008.6 0.4
14/07:00am 17.1 14.9 14.9 87 1.3 NE 20 28 11 15 1009.1 1008.4 0.4
14/06:30am 16.6 14.9 14.6 88 1.2 NE 17 20 9 11 1009.0 1008.3 0.4
14/06:00am 16.6 14.9 14.6 88 1.2 NE 17 20 9 11 1008.8 1008.1 0.4
14/05:30am 16.9 14.9 14.9 88 1.2 NE 19 28 10 15 1008.5 1007.8 0.4
14/05:00am 16.8 14.7 14.8 88 1.2 NE 19 24 10 13 1008.3 1007.6 0.4
14/04:30am 16.8 14.7 14.6 87 1.3 NE 19 24 10 13 1008.4 1007.7 0.4
14/04:00am 16.7 14.9 14.5 87 1.3 NE 17 22 9 12 1008.4 1007.7 0.4
14/03:30am 16.8 15.0 14.4 86 1.4 ENE 17 24 9 13 1008.6 1007.9 0.4
14/03:00am 17.3 16.3 14.6 84 1.6 NE 13 19 7 10 1009.1 1008.4 0.4
14/02:30am 17.4 16.1 14.7 84 1.6 NE 15 20 8 11 1009.2 1008.5 0.4
14/02:00am 17.7 15.5 14.8 83 1.7 NE 20 32 11 17 1009.2 1008.5 0.4
14/01:30am 17.7 15.7 15.0 84 1.6 NE 19 26 10 14 1009.7 1008.9 0.4
14/01:00am 18.2 17.9 15.5 84 1.6 NNE 11 15 6 8 1010.2 1009.4 0.4
14/12:30am 18.9 18.1 15.0 78 2.3 E 13 17 7 9 1010.2 1009.4 0.0
14/12:20am 19.3 18.5 15.2 77 2.4 E 13 20 7 11 1009.9 1009.1 0.0
14/12:03am 19.5 18.0 15.2 76 2.6 NE 17 24 9 13 1009.6 1008.8 0.0
14/12:00am 19.4 17.8 15.1 76 2.6 NE 17 26 9 14 1009.6 1008.8 0.0
 
Date/Time
EDT
Temp
°C
App
Temp
°C
Dew
Point
°C
Rel
Hum
%
Delta-T
°C
Wind Press
QNH
hPa
Press
MSL
hPa
Rain since
9am
mm
Dir  Spd
km/h
Gust
km/h
Spd
kts
Gust
kts
13/11:30pm 20.8 17.5 15.1 70 3.4 NE 26 33 14 18 1010.1 1009.3 0.0
13/11:00pm 18.4 17.1 14.9 80 2.1 ENE 15 17 8 9 1010.0 1009.2 0.0
13/10:30pm 19.3 17.8 15.2 77 2.4 ENE 17 22 9 12 1010.0 1009.2 0.0
13/10:00pm 19.0 18.0 14.5 75 2.6 ESE 13 15 7 8 1009.9 1009.1 0.0
13/09:30pm 19.9 18.9 14.5 71 3.2 SE 13 15 7 8 1009.7 1008.9 0.0
13/09:00pm 19.8 19.1 14.2 70 3.3 SE 11 11 6 6 1009.4 1008.7 0.0
13/08:30pm 19.7 18.9 14.1 70 3.3 SE 11 11 6 6 1009.2 1008.5 0.0
13/08:00pm 20.4 20.0 14.1 67 3.7 SSE 9 9 5 5 1009.1 1008.4 0.0
13/07:30pm 21.8 21.8 14.2 62 4.5 SSW 7 9 4 5 1008.9 1008.2 0.0
13/07:00pm 23.9 23.7 13.7 53 6.0 WSW 7 9 4 5 1008.9 1008.2 0.0
13/06:30pm 25.3 24.8 13.8 49 6.8 W 9 11 5 6 1008.6 1007.9 0.0
13/06:00pm 25.6 25.5 13.8 48 7.0 SW 7 11 4 6 1008.3 1007.6 0.0
13/05:30pm 25.6 24.8 12.8 45 7.5 NNW 9 13 5 7 1008.1 1007.4 0.0
13/05:00pm 25.7 25.0 14.2 49 6.9 NNW 11 15 6 8 1008.2 1007.5 0.0
13/04:30pm 25.6 24.8 15.0 52 6.4 NW 13 17 7 9 1008.4 1007.7 0.0
13/04:00pm 25.6 24.9 14.4 50 6.7 NNW 11 17 6 9 1008.5 1007.8 0.0
13/03:30pm 24.7 23.3 13.3 49 6.7 NNW 13 22 7 12 1008.6 1007.9 0.0
13/03:00pm 25.6 23.9 14.7 51 6.6 NNW 17 26 9 14 1008.9 1008.2 0.0
13/02:30pm 24.4 22.8 13.9 52 6.2 N 15 24 8 13 1009.4 1008.7 0.0
13/02:00pm 25.4 24.1 16.8 59 5.4 NNE 19 28 10 15 1009.8 1009.0 0.0
13/01:30pm 24.4 22.0 15.3 57 5.5 NNE 22 33 12 18 1010.2 1009.4 0.0
13/01:00pm 23.5 20.8 14.5 57 5.4 NNE 22 32 12 17 1010.7 1009.9 0.0
13/12:30pm 23.8 21.1 14.5 56 5.6 NNE 22 33 12 18 1010.9 1010.1 0.0
13/12:00pm 21.6 18.0 14.3 63 4.3 NNE 26 32 14 17 1011.2 1010.4 0.0
13/11:30am 23.0 20.5 15.1 61 4.7 NE 22 30 12 16 1011.7 1011.0 0.0
13/11:00am 21.6 19.4 15.0 66 3.9 NE 20 28 11 15 1012.0 1011.3 0.0
13/10:30am 20.8 17.9 14.0 65 4.0 NE 22 30 12 16 1012.2 1011.5 0.0
13/10:00am 20.3 16.8 14.4 69 3.5 NE 26 33 14 18 1012.2 1011.5 0.0
13/09:30am 19.6 17.6 14.0 70 3.3 NE 17 26 9 14 1012.3 1011.6 0.0
13/09:00am 19.0 17.5 14.1 73 2.8 ENE 15 19 8 10 1012.4 1011.7 2.4
13/08:30am 18.0 16.2 14.5 80 2.0 E 17 24 9 13 1012.4 1011.7 2.4
13/08:00am 16.9 14.9 14.0 83 1.7 E 17 22 9 12 1012.4 1011.7 2.4
13/07:30am 15.8 14.5 13.8 88 1.1 E 13 15 7 8 1012.1 1011.4 2.4
13/07:00am 15.0 13.9 13.2 89 1.0 E 11 17 6 9 1011.8 1011.1 2.4

Other formats

Comma delimited format used in spreadsheet applications
http://www.bom.gov.au/fwo/IDN60801/IDN60801.95527.axf

JavaScript Object Notation format (JSON) in row-major order
http://www.bom.gov.au/fwo/IDN60801/IDN60801.95527.json

Data quality

Most of these data are generated automatically and are frequently updated. Quality checks on data are not normally performed. It is possible for incorrect values to appear. Refer to information at About Latest Weather Observations and please check the disclaimer before using these data.